»·PEaware :: N413C KSNA-KVNY

N413C :: KSNA-KVNY

FLIGHT INFORMATION

Flight Status: Arrived
Operator: Privately registered:
United States
More flights under this callsign
Pilot: Alec D. (17934)
Aircraft: PIPER PA-28 CHEROKEE ARCHER
(P28A)
More flights by this aircraft type
Origin: KSNA John Wayne-Orange Co
United States
Destination: KVNY Van Nuys
United States
More flights between these airports :: More routes between these airports
Route: SLI V23 POPPR SMO125 SMO SMO317 CANOG
File this flight plan on PilotEdge
Remarks:
Altitude:
(Current/Filed)
4,000ft
Speed:
(Current/Filed)
105kts
Departed: 11-Jul-18 08:34 AM
Arrived: 11-Jul-18 09:07 AM
Distance/Time
Traveled:
44nm/0:33
Distance/Time
To Go:
Arrived

Flight Plot

Page will automatically refresh every two minutes.


Map Options




Map Legend


Flown Route
Filed Route
Departure Airport
Arrival Airport
Navaid (VOR, NDB)
Fix

Horizontal Profiles

Position Reports

Time Latitude Longitude Heading Altitude Ground
Speed
11-Jul-18 08:14 33.666435 -117.873047 219 58ft 0kts
11-Jul-18 08:15 33.666435 -117.873047 219 58ft 0kts
11-Jul-18 08:16 33.666435 -117.873047 219 58ft 0kts
11-Jul-18 08:17 33.666433 -117.873049 219 58ft 0kts
11-Jul-18 08:18 33.666431 -117.873051 219 58ft 0kts
11-Jul-18 08:19 33.666430 -117.873052 219 58ft 0kts
11-Jul-18 08:20 33.666428 -117.873054 219 58ft 0kts
11-Jul-18 08:21 33.666426 -117.873055 219 58ft 0kts
11-Jul-18 08:22 33.666425 -117.873057 219 58ft 0kts
11-Jul-18 08:23 33.666423 -117.873059 219 58ft 0kts
11-Jul-18 08:24 33.666421 -117.873061 219 58ft 0kts
11-Jul-18 08:25 33.666419 -117.873062 219 58ft 0kts
11-Jul-18 08:26 33.666417 -117.873065 219 58ft 0kts
11-Jul-18 08:27 33.668143 -117.872144 36 58ft 12kts
11-Jul-18 08:28 33.671587 -117.868871 42 58ft 17kts
11-Jul-18 08:29 33.674287 -117.866893 26 58ft 12kts
11-Jul-18 08:30 33.678554 -117.864355 25 58ft 20kts
11-Jul-18 08:31 33.679661 -117.863857 358 58ft 0kts
11-Jul-18 08:32 33.679664 -117.863857 358 58ft 0kts
11-Jul-18 08:33 33.679667 -117.863858 358 58ft 0kts
11-Jul-18 08:34 33.679670 -117.863858 358 58ft 0kts
11-Jul-18 08:35 33.672981 -117.868491 207 165ft 86kts
11-Jul-18 08:36 33.653612 -117.886782 229 878ft 90kts
11-Jul-18 08:37 33.637145 -117.909246 227 1540ft 90kts
11-Jul-18 08:38 33.620392 -117.932859 233 2503ft 94kts
11-Jul-18 08:39 33.604656 -117.957940 230 3341ft 93kts
11-Jul-18 08:40 33.589193 -117.982390 252 3731ft 94kts
11-Jul-18 08:41 33.599385 -118.011696 304 3965ft 97kts
11-Jul-18 08:42 33.615345 -118.040386 305 3993ft 106kts
11-Jul-18 08:43 33.634187 -118.068219 312 3990ft 108kts
11-Jul-18 08:44 33.655327 -118.094627 316 3965ft 111kts
11-Jul-18 08:45 33.676941 -118.120452 318 3965ft 108kts
11-Jul-18 08:46 33.700995 -118.142560 320 3940ft 110kts
11-Jul-18 08:47 33.723382 -118.166506 320 3988ft 108kts
11-Jul-18 08:48 33.746899 -118.189997 320 3939ft 109kts
11-Jul-18 08:49 33.770095 -118.213401 320 4013ft 108kts
11-Jul-18 08:50 33.794586 -118.238042 320 4138ft 122kts
11-Jul-18 08:51 33.819811 -118.263536 320 3966ft 113kts
11-Jul-18 08:52 33.844897 -118.288879 320 4077ft 122kts
11-Jul-18 08:53 33.871207 -118.315467 320 4065ft 123kts
11-Jul-18 08:54 33.896819 -118.341448 320 3976ft 118kts
11-Jul-18 08:55 33.921369 -118.366346 319 3969ft 111kts
11-Jul-18 08:56 33.945855 -118.391201 320 4063ft 119kts
11-Jul-18 08:57 33.972008 -118.417676 320 4045ft 125kts
11-Jul-18 08:58 33.997127 -118.443269 320 3978ft 113kts
11-Jul-18 08:59 34.023877 -118.465577 333 4064ft 120kts
11-Jul-18 09:00 34.052553 -118.483854 332 3935ft 111kts
11-Jul-18 09:01 34.081020 -118.502134 332 4088ft 121kts
11-Jul-18 09:02 34.112494 -118.518263 358 3983ft 127kts
11-Jul-18 09:03 34.146991 -118.512291 11 3017ft 126kts
11-Jul-18 09:04 34.180178 -118.504043 7 2115ft 117kts
11-Jul-18 09:05 34.209604 -118.506928 348 1843ft 95kts
11-Jul-18 09:06 34.233002 -118.507582 55 1590ft 83kts
11-Jul-18 09:07 34.220690 -118.491421 177 958ft 73kts
11-Jul-18 09:08 34.206670 -118.490130 195 804ft 18kts
11-Jul-18 09:09 34.206319 -118.491090 221 804ft 10kts
11-Jul-18 09:10 34.204131 -118.491696 263 804ft 0kts
11-Jul-18 09:11 34.204131 -118.491697 263 804ft 0kts
11-Jul-18 09:12 34.204131 -118.491697 263 804ft 0kts
11-Jul-18 09:13 34.204131 -118.491697 263 804ft 0kts
11-Jul-18 09:14 34.204131 -118.491697 263 804ft 0kts
11-Jul-18 09:15 34.204131 -118.491697 263 804ft 0kts
11-Jul-18 09:16 34.204131 -118.491697 263 804ft 0kts
11-Jul-18 09:17 34.204131 -118.491697 263 804ft 0kts
11-Jul-18 09:18 34.204131 -118.491697 263 804ft 0kts
11-Jul-18 09:19 34.204131 -118.491697 263 804ft 0kts
11-Jul-18 09:20 34.204131 -118.491697 263 804ft 0kts

Navigation Log

Ident Type
Flight plan parsing failed, navigation log unavailable